sensor_id;sensor_type;location;lat;lon;timestamp;pressure;altitude;pressure_sealevel;temperature;humidity
46392;BME280;32098;49.448;7.904;2023-06-22T00:00:51;98272.69;;;20.45;78.11
46392;BME280;32098;49.448;7.904;2023-06-22T00:03:19;98250.69;;;19.81;82.88
46392;BME280;32098;49.448;7.904;2023-06-22T00:05:47;98251.69;;;19.66;83.87
46392;BME280;32098;49.448;7.904;2023-06-22T00:08:14;98274.69;;;19.69;84.15
46392;BME280;32098;49.448;7.904;2023-06-22T00:10:40;98290.78;;;19.84;84.50
46392;BME280;32098;49.448;7.904;2023-06-22T00:13:08;98335.13;;;19.93;85.13
46392;BME280;32098;49.448;7.904;2023-06-22T00:15:36;98387.41;;;19.98;84.60
46392;BME280;32098;49.448;7.904;2023-06-22T00:18:03;98454.88;;;20.00;84.88
46392;BME280;32098;49.448;7.904;2023-06-22T00:20:29;98496.41;;;19.95;84.47
46392;BME280;32098;49.448;7.904;2023-06-22T00:22:58;98523.00;;;19.93;83.92
46392;BME280;32098;49.448;7.904;2023-06-22T00:25:25;98485.28;;;19.97;82.87
46392;BME280;32098;49.448;7.904;2023-06-22T00:27:52;98451.00;;;20.11;81.88
46392;BME280;32098;49.448;7.904;2023-06-22T00:30:18;98408.16;;;20.08;81.80
46392;BME280;32098;49.448;7.904;2023-06-22T00:32:45;98317.78;;;19.65;83.75
46392;BME280;32098;49.448;7.904;2023-06-22T00:35:13;98173.28;;;18.60;91.79
46392;BME280;32098;49.448;7.904;2023-06-22T00:37:40;98144.75;;;17.95;97.87
46392;BME280;32098;49.448;7.904;2023-06-22T00:40:10;98138.97;;;18.22;96.03
46392;BME280;32098;49.448;7.904;2023-06-22T00:42:41;98167.91;;;18.55;92.66
46392;BME280;32098;49.448;7.904;2023-06-22T00:45:09;98226.09;;;18.91;91.78
46392;BME280;32098;49.448;7.904;2023-06-22T00:47:36;98246.28;;;19.04;90.77
46392;BME280;32098;49.448;7.904;2023-06-22T00:50:06;98255.56;;;19.26;91.04
46392;BME280;32098;49.448;7.904;2023-06-22T00:52:33;98267.34;;;19.41;90.04
46392;BME280;32098;49.448;7.904;2023-06-22T00:55:02;98264.47;;;19.56;88.73
46392;BME280;32098;49.448;7.904;2023-06-22T00:57:29;98258.19;;;19.60;86.88
46392;BME280;32098;49.448;7.904;2023-06-22T00:59:55;98260.66;;;19.62;86.91
46392;BME280;32098;49.448;7.904;2023-06-22T01:02:22;98265.97;;;19.72;86.43
46392;BME280;32098;49.448;7.904;2023-06-22T01:04:50;98274.28;;;19.80;86.82
46392;BME280;32098;49.448;7.904;2023-06-22T01:07:35;98270.41;;;19.86;85.36
46392;BME280;32098;49.448;7.904;2023-06-22T01:10:21;98268.75;;;19.90;84.82
46392;BME280;32098;49.448;7.904;2023-06-22T01:12:55;98247.53;;;19.74;85.20
46392;BME280;32098;49.448;7.904;2023-06-22T01:15:36;98260.97;;;19.84;84.78
46392;BME280;32098;49.448;7.904;2023-06-22T01:18:08;98264.47;;;19.56;85.43
46392;BME280;32098;49.448;7.904;2023-06-22T01:20:36;98252.06;;;19.50;85.58
46392;BME280;32098;49.448;7.904;2023-06-22T01:26:02;98225.91;;;19.40;86.39
46392;BME280;32098;49.448;7.904;2023-06-22T01:28:40;98230.94;;;19.52;85.29
46392;BME280;32098;49.448;7.904;2023-06-22T01:31:11;98232.47;;;19.63;85.18
46392;BME280;32098;49.448;7.904;2023-06-22T01:33:41;98236.81;;;19.64;85.51
46392;BME280;32098;49.448;7.904;2023-06-22T01:36:09;98241.66;;;19.67;84.58
46392;BME280;32098;49.448;7.904;2023-06-22T01:38:39;98229.56;;;19.54;85.08
46392;BME280;32098;49.448;7.904;2023-06-22T01:41:06;98213.53;;;19.58;83.89
46392;BME280;32098;49.448;7.904;2023-06-22T01:43:32;98226.41;;;19.71;83.27
46392;BME280;32098;49.448;7.904;2023-06-22T01:46:01;98219.91;;;19.72;83.22
46392;BME280;32098;49.448;7.904;2023-06-22T01:48:30;98236.63;;;19.79;82.85
46392;BME280;32098;49.448;7.904;2023-06-22T01:50:57;98224.03;;;19.88;82.24
46392;BME280;32098;49.448;7.904;2023-06-22T01:53:24;98229.59;;;19.78;82.24
46392;BME280;32098;49.448;7.904;2023-06-22T01:55:51;98216.91;;;19.73;82.29
46392;BME280;32098;49.448;7.904;2023-06-22T01:58:20;98218.84;;;19.68;82.68
46392;BME280;32098;49.448;7.904;2023-06-22T02:00:51;98231.91;;;19.66;82.92
46392;BME280;32098;49.448;7.904;2023-06-22T02:03:30;98220.25;;;19.65;82.45
46392;BME280;32098;49.448;7.904;2023-06-22T02:06:03;98223.19;;;19.69;82.41
46392;BME280;32098;49.448;7.904;2023-06-22T02:08:35;98216.22;;;19.63;82.45
46392;BME280;32098;49.448;7.904;2023-06-22T02:11:04;98217.03;;;19.58;82.57
46392;BME280;32098;49.448;7.904;2023-06-22T02:13:32;98210.59;;;19.54;82.94
46392;BME280;32098;49.448;7.904;2023-06-22T02:16:00;98178.31;;;19.34;82.27
46392;BME280;32098;49.448;7.904;2023-06-22T02:18:27;98211.91;;;19.62;81.51
46392;BME280;32098;49.448;7.904;2023-06-22T02:20:54;98206.47;;;19.62;80.98
46392;BME280;32098;49.448;7.904;2023-06-22T02:23:21;98202.75;;;19.53;81.73
46392;BME280;32098;49.448;7.904;2023-06-22T02:25:48;98173.88;;;19.19;81.72
46392;BME280;32098;49.448;7.904;2023-06-22T02:28:15;98194.88;;;19.27;82.84
46392;BME280;32098;49.448;7.904;2023-06-22T02:30:41;98185.72;;;18.95;84.90
46392;BME280;32098;49.448;7.904;2023-06-22T02:33:08;98187.31;;;19.01;85.22
46392;BME280;32098;49.448;7.904;2023-06-22T02:35:34;98178.09;;;19.02;84.81
46392;BME280;32098;49.448;7.904;2023-06-22T02:38:03;98178.38;;;19.00;84.55
46392;BME280;32098;49.448;7.904;2023-06-22T02:40:30;98178.97;;;18.92;85.24
46392;BME280;32098;49.448;7.904;2023-06-22T02:42:58;98171.78;;;18.78;85.42
46392;BME280;32098;49.448;7.904;2023-06-22T02:45:28;98183.16;;;18.74;86.01
46392;BME280;32098;49.448;7.904;2023-06-22T02:47:55;98176.38;;;18.77;86.30
46392;BME280;32098;49.448;7.904;2023-06-22T02:50:23;98170.13;;;18.82;85.43
46392;BME280;32098;49.448;7.904;2023-06-22T02:52:50;98154.22;;;18.75;84.88
46392;BME280;32098;49.448;7.904;2023-06-22T02:55:17;98167.06;;;18.93;84.37
46392;BME280;32098;49.448;7.904;2023-06-22T02:57:51;98168.22;;;18.82;84.16
46392;BME280;32098;49.448;7.904;2023-06-22T03:00:20;98165.59;;;18.72;85.16
46392;BME280;32098;49.448;7.904;2023-06-22T03:02:48;98159.09;;;18.73;84.97
46392;BME280;32098;49.448;7.904;2023-06-22T03:05:16;98154.16;;;18.85;84.16
46392;BME280;32098;49.448;7.904;2023-06-22T03:07:45;98149.59;;;18.76;84.80
46392;BME280;32098;49.448;7.904;2023-06-22T03:10:13;98150.44;;;18.76;84.96
46392;BME280;32098;49.448;7.904;2023-06-22T03:12:40;98150.22;;;18.67;84.87
46392;BME280;32098;49.448;7.904;2023-06-22T03:15:10;98144.84;;;18.62;85.32
46392;BME280;32098;49.448;7.904;2023-06-22T03:17:38;98145.16;;;18.61;85.57
46392;BME280;32098;49.448;7.904;2023-06-22T03:20:07;98134.63;;;18.54;85.25
46392;BME280;32098;49.448;7.904;2023-06-22T03:22:41;98138.56;;;18.67;85.53
46392;BME280;32098;49.448;7.904;2023-06-22T03:25:09;98137.97;;;18.75;84.35
46392;BME280;32098;49.448;7.904;2023-06-22T03:27:44;98143.16;;;18.71;84.70
46392;BME280;32098;49.448;7.904;2023-06-22T03:30:11;98111.56;;;18.62;84.11
46392;BME280;32098;49.448;7.904;2023-06-22T03:32:38;98145.06;;;18.71;84.11
46392;BME280;32098;49.448;7.904;2023-06-22T03:35:06;98143.63;;;18.79;84.00
46392;BME280;32098;49.448;7.904;2023-06-22T03:37:35;98151.31;;;18.66;83.84
46392;BME280;32098;49.448;7.904;2023-06-22T03:40:02;98150.00;;;18.64;83.93
46392;BME280;32098;49.448;7.904;2023-06-22T03:42:33;98152.31;;;18.76;83.50
46392;BME280;32098;49.448;7.904;2023-06-22T03:45:02;98153.41;;;18.74;83.81
46392;BME280;32098;49.448;7.904;2023-06-22T03:47:29;98147.81;;;18.66;83.01
46392;BME280;32098;49.448;7.904;2023-06-22T03:49:57;98156.03;;;18.51;83.72
46392;BME280;32098;49.448;7.904;2023-06-22T03:52:24;98162.63;;;18.35;84.81
46392;BME280;32098;49.448;7.904;2023-06-22T03:54:51;98162.63;;;18.35;84.91
46392;BME280;32098;49.448;7.904;2023-06-22T03:57:18;98153.78;;;18.29;85.12
46392;BME280;32098;49.448;7.904;2023-06-22T03:59:44;98153.47;;;18.31;85.10
46392;BME280;32098;49.448;7.904;2023-06-22T04:02:11;98153.53;;;18.26;85.67
46392;BME280;32098;49.448;7.904;2023-06-22T04:04:37;98158.59;;;18.32;85.53
46392;BME280;32098;49.448;7.904;2023-06-22T04:07:05;98154.06;;;18.23;85.23
46392;BME280;32098;49.448;7.904;2023-06-22T04:09:32;98142.50;;;18.12;86.37
46392;BME280;32098;49.448;7.904;2023-06-22T04:11:58;98156.25;;;18.21;85.70
46392;BME280;32098;49.448;7.904;2023-06-22T04:14:25;98153.31;;;18.12;86.13
46392;BME280;32098;49.448;7.904;2023-06-22T04:16:51;98165.50;;;18.09;86.15
46392;BME280;32098;49.448;7.904;2023-06-22T04:19:18;98163.59;;;18.15;86.04
46392;BME280;32098;49.448;7.904;2023-06-22T04:21:45;98162.13;;;18.33;85.47
46392;BME280;32098;49.448;7.904;2023-06-22T04:24:11;98159.13;;;18.39;85.46
46392;BME280;32098;49.448;7.904;2023-06-22T04:26:38;98148.69;;;18.56;84.71
46392;BME280;32098;49.448;7.904;2023-06-22T04:29:07;98117.88;;;18.52;83.16
46392;BME280;32098;49.448;7.904;2023-06-22T04:31:35;98156.28;;;18.88;82.89
46392;BME280;32098;49.448;7.904;2023-06-22T04:34:05;98151.50;;;19.09;82.57
46392;BME280;32098;49.448;7.904;2023-06-22T04:36:37;98131.34;;;19.20;81.87
46392;BME280;32098;49.448;7.904;2023-06-22T04:39:10;98149.69;;;19.52;80.46
46392;BME280;32098;49.448;7.904;2023-06-22T04:41:38;98138.63;;;19.72;79.01
46392;BME280;32098;49.448;7.904;2023-06-22T04:46:37;98131.53;;;20.13;78.19
46392;BME280;32098;49.448;7.904;2023-06-22T04:49:08;98143.47;;;20.31;76.69
46392;BME280;32098;49.448;7.904;2023-06-22T04:51:40;98136.38;;;20.53;76.02
46392;BME280;32098;49.448;7.904;2023-06-22T04:54:09;98131.28;;;20.66;75.54
46392;BME280;32098;49.448;7.904;2023-06-22T04:56:36;98132.38;;;20.97;73.83
46392;BME280;32098;49.448;7.904;2023-06-22T04:59:03;98134.53;;;21.13;73.98
46392;BME280;32098;49.448;7.904;2023-06-22T05:01:30;98130.63;;;21.33;72.66
46392;BME280;32098;49.448;7.904;2023-06-22T05:04:01;98124.78;;;21.53;72.37
46392;BME280;32098;49.448;7.904;2023-06-22T05:06:29;98117.75;;;21.79;71.38
46392;BME280;32098;49.448;7.904;2023-06-22T05:08:56;98109.44;;;21.98;71.69
46392;BME280;32098;49.448;7.904;2023-06-22T05:11:26;98110.59;;;22.19;70.89
46392;BME280;32098;49.448;7.904;2023-06-22T05:13:54;98107.38;;;22.39;70.62
46392;BME280;32098;49.448;7.904;2023-06-22T05:16:21;98111.41;;;22.42;69.93
46392;BME280;32098;49.448;7.904;2023-06-22T05:18:54;98097.13;;;22.59;69.57
46392;BME280;32098;49.448;7.904;2023-06-22T05:21:26;98109.56;;;22.73;68.88
46392;BME280;32098;49.448;7.904;2023-06-22T05:23:53;98101.59;;;22.85;68.47
46392;BME280;32098;49.448;7.904;2023-06-22T05:26:21;98092.13;;;23.05;68.00
46392;BME280;32098;49.448;7.904;2023-06-22T05:28:48;98095.75;;;23.31;66.95
46392;BME280;32098;49.448;7.904;2023-06-22T05:31:15;98091.50;;;23.47;66.11
46392;BME280;32098;49.448;7.904;2023-06-22T05:33:43;98099.22;;;23.62;65.73
46392;BME280;32098;49.448;7.904;2023-06-22T05:36:10;98093.47;;;23.72;64.52
46392;BME280;32098;49.448;7.904;2023-06-22T05:38:36;98103.63;;;23.89;64.52
46392;BME280;32098;49.448;7.904;2023-06-22T05:41:03;98084.38;;;23.94;63.82
46392;BME280;32098;49.448;7.904;2023-06-22T05:43:30;98099.34;;;24.22;63.41
46392;BME280;32098;49.448;7.904;2023-06-22T05:45:58;98100.75;;;24.28;63.45
46392;BME280;32098;49.448;7.904;2023-06-22T05:48:25;98091.47;;;24.38;63.98
46392;BME280;32098;49.448;7.904;2023-06-22T05:50:51;98096.59;;;24.57;63.19
46392;BME280;32098;49.448;7.904;2023-06-22T05:53:18;98106.66;;;24.82;61.49
46392;BME280;32098;49.448;7.904;2023-06-22T05:55:46;98097.31;;;24.91;62.07
46392;BME280;32098;49.448;7.904;2023-06-22T05:58:12;98095.38;;;25.09;60.43
46392;BME280;32098;49.448;7.904;2023-06-22T06:00:40;98099.84;;;25.14;61.73
46392;BME280;32098;49.448;7.904;2023-06-22T06:03:08;98100.16;;;25.21;60.87
46392;BME280;32098;49.448;7.904;2023-06-22T06:05:35;98097.84;;;25.31;60.90
46392;BME280;32098;49.448;7.904;2023-06-22T06:08:04;98082.81;;;25.46;59.58
46392;BME280;32098;49.448;7.904;2023-06-22T06:10:32;98073.75;;;25.54;60.02
46392;BME280;32098;49.448;7.904;2023-06-22T06:13:00;98090.78;;;25.59;58.82
46392;BME280;32098;49.448;7.904;2023-06-22T06:15:31;98093.19;;;25.61;59.05
46392;BME280;32098;49.448;7.904;2023-06-22T06:17:59;98082.75;;;25.54;59.71
46392;BME280;32098;49.448;7.904;2023-06-22T06:20:26;98096.63;;;25.20;60.18
46392;BME280;32098;49.448;7.904;2023-06-22T06:22:55;98097.56;;;25.53;61.31
46392;BME280;32098;49.448;7.904;2023-06-22T06:25:22;98099.03;;;25.51;58.94
46392;BME280;32098;49.448;7.904;2023-06-22T06:27:50;98089.44;;;25.36;59.49
46392;BME280;32098;49.448;7.904;2023-06-22T06:30:18;98087.53;;;24.82;61.53
46392;BME280;32098;49.448;7.904;2023-06-22T06:32:46;98092.06;;;24.78;61.04
46392;BME280;32098;49.448;7.904;2023-06-22T06:35:14;98078.63;;;24.04;62.41
46392;BME280;32098;49.448;7.904;2023-06-22T06:37:44;98070.91;;;23.89;63.66
46392;BME280;32098;49.448;7.904;2023-06-22T06:40:12;98073.50;;;24.20;64.17
46392;BME280;32098;49.448;7.904;2023-06-22T06:42:43;98084.88;;;23.88;63.47
46392;BME280;32098;49.448;7.904;2023-06-22T06:45:12;98077.03;;;24.20;65.09
46392;BME280;32098;49.448;7.904;2023-06-22T06:47:39;98087.44;;;24.35;63.17
46392;BME280;32098;49.448;7.904;2023-06-22T06:50:06;98089.50;;;24.56;61.18
46392;BME280;32098;49.448;7.904;2023-06-22T06:52:33;98088.94;;;24.96;61.70
46392;BME280;32098;49.448;7.904;2023-06-22T06:55:03;98088.81;;;24.84;61.10
46392;BME280;32098;49.448;7.904;2023-06-22T06:57:36;98065.59;;;25.16;60.86
46392;BME280;32098;49.448;7.904;2023-06-22T07:00:08;98063.22;;;24.97;61.02
46392;BME280;32098;49.448;7.904;2023-06-22T07:02:40;98064.94;;;24.56;60.58
46392;BME280;32098;49.448;7.904;2023-06-22T07:05:08;98078.25;;;24.74;60.92
46392;BME280;32098;49.448;7.904;2023-06-22T07:07:35;98060.38;;;24.85;61.66
46392;BME280;32098;49.448;7.904;2023-06-22T07:10:05;98056.09;;;25.14;59.13
46392;BME280;32098;49.448;7.904;2023-06-22T07:12:33;98073.28;;;25.23;58.05
46392;BME280;32098;49.448;7.904;2023-06-22T07:15:04;98071.28;;;25.40;58.98
46392;BME280;32098;49.448;7.904;2023-06-22T07:17:31;98075.47;;;25.67;58.42
46392;BME280;32098;49.448;7.904;2023-06-22T07:19:58;98012.03;;;25.44;58.67
46392;BME280;32098;49.448;7.904;2023-06-22T07:22:24;98071.81;;;25.54;55.87
46392;BME280;32098;49.448;7.904;2023-06-22T07:24:51;98079.38;;;25.87;56.69
46392;BME280;32098;49.448;7.904;2023-06-22T07:27:18;98074.78;;;25.41;56.89
46392;BME280;32098;49.448;7.904;2023-06-22T07:29:45;98073.50;;;25.97;57.74
46392;BME280;32098;49.448;7.904;2023-06-22T07:32:12;98076.28;;;26.09;56.98
46392;BME280;32098;49.448;7.904;2023-06-22T07:34:38;98078.56;;;26.07;55.11
46392;BME280;32098;49.448;7.904;2023-06-22T07:37:05;97997.94;;;26.04;56.74
46392;BME280;32098;49.448;7.904;2023-06-22T07:39:31;98069.03;;;26.66;54.76
46392;BME280;32098;49.448;7.904;2023-06-22T07:41:58;98080.41;;;26.56;53.32
46392;BME280;32098;49.448;7.904;2023-06-22T07:44:24;98063.47;;;26.42;55.94
46392;BME280;32098;49.448;7.904;2023-06-22T07:46:51;98053.19;;;26.39;54.14
46392;BME280;32098;49.448;7.904;2023-06-22T07:49:18;98056.81;;;26.31;53.94
46392;BME280;32098;49.448;7.904;2023-06-22T07:51:44;98052.28;;;26.35;53.74
46392;BME280;32098;49.448;7.904;2023-06-22T07:54:10;98055.75;;;26.56;52.74
46392;BME280;32098;49.448;7.904;2023-06-22T07:56:37;98048.72;;;26.14;54.46
46392;BME280;32098;49.448;7.904;2023-06-22T07:59:04;98044.84;;;25.44;56.67
46392;BME280;32098;49.448;7.904;2023-06-22T08:01:30;98035.94;;;25.27;57.05
46392;BME280;32098;49.448;7.904;2023-06-22T08:03:57;98032.91;;;24.82;57.55
46392;BME280;32098;49.448;7.904;2023-06-22T08:06:23;97945.97;;;24.38;58.68
46392;BME280;32098;49.448;7.904;2023-06-22T08:08:50;98032.41;;;23.99;59.22
46392;BME280;32098;49.448;7.904;2023-06-22T08:11:19;98030.16;;;23.84;60.63
46392;BME280;32098;49.448;7.904;2023-06-22T08:13:45;98036.19;;;23.64;60.46
46392;BME280;32098;49.448;7.904;2023-06-22T08:16:12;98039.28;;;24.14;60.75
46392;BME280;32098;49.448;7.904;2023-06-22T08:18:38;98037.97;;;24.54;60.47
46392;BME280;32098;49.448;7.904;2023-06-22T08:21:05;98038.84;;;24.84;59.21
46392;BME280;32098;49.448;7.904;2023-06-22T08:23:32;98024.81;;;24.94;58.44
46392;BME280;32098;49.448;7.904;2023-06-22T08:25:58;98025.91;;;25.39;58.60
46392;BME280;32098;49.448;7.904;2023-06-22T08:28:25;98029.97;;;25.63;54.73
46392;BME280;32098;49.448;7.904;2023-06-22T08:30:51;98024.50;;;25.63;55.35
46392;BME280;32098;49.448;7.904;2023-06-22T08:33:18;98018.81;;;26.09;56.71
46392;BME280;32098;49.448;7.904;2023-06-22T08:35:55;98028.16;;;26.29;55.31
46392;BME280;32098;49.448;7.904;2023-06-22T08:38:21;98015.06;;;26.34;54.71
46392;BME280;32098;49.448;7.904;2023-06-22T08:40:48;98023.06;;;25.86;55.27
46392;BME280;32098;49.448;7.904;2023-06-22T08:43:14;98019.22;;;25.57;56.00
46392;BME280;32098;49.448;7.904;2023-06-22T08:45:41;98010.72;;;25.21;56.47
46392;BME280;32098;49.448;7.904;2023-06-22T08:48:09;98022.75;;;25.58;56.19
46392;BME280;32098;49.448;7.904;2023-06-22T08:50:36;98018.25;;;24.95;56.87
46392;BME280;32098;49.448;7.904;2023-06-22T08:53:02;98028.38;;;25.03;56.59
46392;BME280;32098;49.448;7.904;2023-06-22T08:55:29;98035.09;;;24.97;57.90
46392;BME280;32098;49.448;7.904;2023-06-22T08:57:56;98021.66;;;25.21;59.11
46392;BME280;32098;49.448;7.904;2023-06-22T09:00:22;98017.91;;;25.34;57.62
46392;BME280;32098;49.448;7.904;2023-06-22T09:02:49;98010.63;;;25.68;56.28
46392;BME280;32098;49.448;7.904;2023-06-22T09:05:16;98014.50;;;26.08;56.79
46392;BME280;32098;49.448;7.904;2023-06-22T09:07:42;98023.28;;;26.34;54.77
46392;BME280;32098;49.448;7.904;2023-06-22T09:10:09;97998.06;;;26.08;53.75
46392;BME280;32098;49.448;7.904;2023-06-22T09:12:36;98020.69;;;26.17;54.42
46392;BME280;32098;49.448;7.904;2023-06-22T09:15:04;98003.09;;;26.39;55.06
46392;BME280;32098;49.448;7.904;2023-06-22T09:17:37;97981.41;;;26.01;56.15
46392;BME280;32098;49.448;7.904;2023-06-22T09:20:04;97997.47;;;25.82;55.93
46392;BME280;32098;49.448;7.904;2023-06-22T09:22:34;97980.00;;;25.74;55.43
46392;BME280;32098;49.448;7.904;2023-06-22T09:25:00;97987.44;;;26.06;54.97
46392;BME280;32098;49.448;7.904;2023-06-22T09:27:27;97977.69;;;26.50;55.26
46392;BME280;32098;49.448;7.904;2023-06-22T09:29:53;97974.97;;;26.62;53.31
46392;BME280;32098;49.448;7.904;2023-06-22T09:32:20;97979.50;;;26.46;53.30
46392;BME280;32098;49.448;7.904;2023-06-22T09:34:46;97971.75;;;26.48;52.79
46392;BME280;32098;49.448;7.904;2023-06-22T09:37:13;97971.56;;;26.65;53.57
46392;BME280;32098;49.448;7.904;2023-06-22T09:39:40;97948.97;;;27.05;52.21
46392;BME280;32098;49.448;7.904;2023-06-22T09:42:06;97940.50;;;27.46;49.07
46392;BME280;32098;49.448;7.904;2023-06-22T09:44:33;97947.63;;;27.63;50.25
46392;BME280;32098;49.448;7.904;2023-06-22T09:47:00;97930.66;;;27.45;49.45
46392;BME280;32098;49.448;7.904;2023-06-22T09:49:26;97937.59;;;27.55;49.13
46392;BME280;32098;49.448;7.904;2023-06-22T09:52:12;97942.44;;;27.33;49.80
46392;BME280;32098;49.448;7.904;2023-06-22T09:54:39;97939.53;;;27.54;48.56
46392;BME280;32098;49.448;7.904;2023-06-22T09:57:06;97946.38;;;26.96;50.12
46392;BME280;32098;49.448;7.904;2023-06-22T09:59:32;97935.25;;;26.68;50.84
46392;BME280;32098;49.448;7.904;2023-06-22T10:01:59;97943.44;;;26.56;51.30
46392;BME280;32098;49.448;7.904;2023-06-22T10:04:26;97928.53;;;26.90;50.32
46392;BME280;32098;49.448;7.904;2023-06-22T10:06:53;97930.09;;;27.27;49.84
46392;BME280;32098;49.448;7.904;2023-06-22T10:09:19;97923.81;;;27.27;49.08
46392;BME280;32098;49.448;7.904;2023-06-22T10:11:47;97904.03;;;27.21;49.78
46392;BME280;32098;49.448;7.904;2023-06-22T10:14:14;97900.06;;;27.19;49.00
46392;BME280;32098;49.448;7.904;2023-06-22T10:16:40;97902.59;;;27.36;50.50
46392;BME280;32098;49.448;7.904;2023-06-22T10:19:07;97904.22;;;27.92;48.32
46392;BME280;32098;49.448;7.904;2023-06-22T10:21:34;97900.03;;;28.26;48.22
46392;BME280;32098;49.448;7.904;2023-06-22T10:24:01;97903.81;;;28.06;46.84
46392;BME280;32098;49.448;7.904;2023-06-22T10:26:33;97880.78;;;28.11;46.50
46392;BME280;32098;49.448;7.904;2023-06-22T10:29:00;97892.75;;;28.18;46.54
46392;BME280;32098;49.448;7.904;2023-06-22T10:31:43;97886.28;;;27.83;47.37
46392;BME280;32098;49.448;7.904;2023-06-22T10:34:10;97877.69;;;28.28;47.01
46392;BME280;32098;49.448;7.904;2023-06-22T10:36:37;97890.09;;;28.37;46.04
46392;BME280;32098;49.448;7.904;2023-06-22T10:39:04;97886.41;;;28.45;45.45
46392;BME280;32098;49.448;7.904;2023-06-22T10:41:30;97882.22;;;28.36;46.73
46392;BME280;32098;49.448;7.904;2023-06-22T10:43:57;97876.72;;;28.36;45.66
46392;BME280;32098;49.448;7.904;2023-06-22T10:46:25;97878.81;;;28.27;47.05
46392;BME280;32098;49.448;7.904;2023-06-22T10:48:55;97866.16;;;28.38;45.60
46392;BME280;32098;49.448;7.904;2023-06-22T10:51:23;97873.34;;;28.27;45.90
46392;BME280;32098;49.448;7.904;2023-06-22T10:53:50;97861.94;;;28.56;45.91
46392;BME280;32098;49.448;7.904;2023-06-22T10:56:18;97861.75;;;28.64;45.71
46392;BME280;32098;49.448;7.904;2023-06-22T10:58:45;97865.44;;;29.03;45.10
46392;BME280;32098;49.448;7.904;2023-06-22T11:01:12;97860.75;;;28.88;45.24
46392;BME280;32098;49.448;7.904;2023-06-22T11:03:58;97860.88;;;29.11;44.54
46392;BME280;32098;49.448;7.904;2023-06-22T11:06:25;97855.97;;;29.20;45.59
46392;BME280;32098;49.448;7.904;2023-06-22T11:08:51;97860.31;;;29.40;44.69
46392;BME280;32098;49.448;7.904;2023-06-22T11:11:32;97860.28;;;29.56;44.80
46392;BME280;32098;49.448;7.904;2023-06-22T11:13:59;97848.22;;;29.25;43.57
46392;BME280;32098;49.448;7.904;2023-06-22T11:16:25;97848.94;;;29.22;44.25
46392;BME280;32098;49.448;7.904;2023-06-22T11:18:52;97856.19;;;29.30;44.17
46392;BME280;32098;49.448;7.904;2023-06-22T11:21:19;97867.00;;;29.39;44.87
46392;BME280;32098;49.448;7.904;2023-06-22T11:23:45;97859.19;;;29.41;44.64
46392;BME280;32098;49.448;7.904;2023-06-22T11:26:12;97857.38;;;29.49;43.90
46392;BME280;32098;49.448;7.904;2023-06-22T11:28:38;97856.41;;;29.79;43.62
46392;BME280;32098;49.448;7.904;2023-06-22T11:31:05;97849.69;;;30.00;42.79
46392;BME280;32098;49.448;7.904;2023-06-22T11:33:53;97862.41;;;29.85;42.61
46392;BME280;32098;49.448;7.904;2023-06-22T11:36:19;97845.09;;;29.62;42.97
46392;BME280;32098;49.448;7.904;2023-06-22T11:38:46;97848.97;;;29.61;43.74
46392;BME280;32098;49.448;7.904;2023-06-22T11:41:13;97852.00;;;29.37;43.06
46392;BME280;32098;49.448;7.904;2023-06-22T11:43:39;97848.97;;;29.61;43.83
46392;BME280;32098;49.448;7.904;2023-06-22T11:46:06;97848.94;;;29.80;44.04
46392;BME280;32098;49.448;7.904;2023-06-22T11:48:32;97849.31;;;29.78;43.74
46392;BME280;32098;49.448;7.904;2023-06-22T11:50:59;97846.03;;;30.11;42.61
46392;BME280;32098;49.448;7.904;2023-06-22T11:53:26;97839.84;;;30.18;41.95
46392;BME280;32098;49.448;7.904;2023-06-22T11:55:53;97848.34;;;30.32;42.00
46392;BME280;32098;49.448;7.904;2023-06-22T11:58:22;97841.41;;;29.77;42.78
46392;BME280;32098;49.448;7.904;2023-06-22T12:00:49;97830.94;;;29.63;43.15
46392;BME280;32098;49.448;7.904;2023-06-22T12:03:19;97850.47;;;29.77;44.11
46392;BME280;32098;49.448;7.904;2023-06-22T12:05:46;97853.63;;;29.99;44.01
46392;BME280;32098;49.448;7.904;2023-06-22T12:08:13;97837.97;;;30.03;42.80
46392;BME280;32098;49.448;7.904;2023-06-22T12:10:40;97839.00;;;29.94;43.21
46392;BME280;32098;49.448;7.904;2023-06-22T12:13:06;97836.19;;;29.91;44.11
46392;BME280;32098;49.448;7.904;2023-06-22T12:15:33;97831.41;;;29.88;44.04
46392;BME280;32098;49.448;7.904;2023-06-22T12:18:00;97828.09;;;29.79;44.06
46392;BME280;32098;49.448;7.904;2023-06-22T12:20:27;97819.72;;;29.53;44.43
46392;BME280;32098;49.448;7.904;2023-06-22T12:22:55;97819.00;;;29.56;44.28
46392;BME280;32098;49.448;7.904;2023-06-22T12:25:24;97821.53;;;29.64;43.61
46392;BME280;32098;49.448;7.904;2023-06-22T12:27:51;97829.41;;;29.66;43.95
46392;BME280;32098;49.448;7.904;2023-06-22T12:30:17;97825.19;;;29.91;43.80
46392;BME280;32098;49.448;7.904;2023-06-22T12:32:44;97828.00;;;30.17;43.56
46392;BME280;32098;49.448;7.904;2023-06-22T12:35:10;97830.75;;;30.40;42.34
46392;BME280;32098;49.448;7.904;2023-06-22T12:37:41;97823.09;;;30.52;41.44
46392;BME280;32098;49.448;7.904;2023-06-22T12:40:09;97827.88;;;30.55;40.26
46392;BME280;32098;49.448;7.904;2023-06-22T12:42:36;97820.47;;;30.86;40.10
46392;BME280;32098;49.448;7.904;2023-06-22T12:45:03;97824.22;;;31.00;39.49
46392;BME280;32098;49.448;7.904;2023-06-22T12:47:29;97833.81;;;31.10;39.31
46392;BME280;32098;49.448;7.904;2023-06-22T12:49:56;97819.25;;;31.09;39.17
46392;BME280;32098;49.448;7.904;2023-06-22T12:52:23;97814.22;;;30.89;39.79
46392;BME280;32098;49.448;7.904;2023-06-22T12:54:49;97827.69;;;30.94;38.92
46392;BME280;32098;49.448;7.904;2023-06-22T12:57:21;97816.06;;;31.07;38.11
46392;BME280;32098;49.448;7.904;2023-06-22T12:59:48;97823.06;;;31.01;38.66
46392;BME280;32098;49.448;7.904;2023-06-22T13:02:14;97817.03;;;30.66;38.20
46392;BME280;32098;49.448;7.904;2023-06-22T13:04:41;97806.69;;;30.86;37.85
46392;BME280;32098;49.448;7.904;2023-06-22T13:07:09;97802.47;;;30.95;39.03
46392;BME280;32098;49.448;7.904;2023-06-22T13:09:49;97808.88;;;31.03;38.66